Prospect Creek, Prospect Cree, AK

1:54 PM AKST on February 10, 2016 (GMT -0900)
Bettles | | Change Station
CLOSE
Current Station
Airport
Location: Bettles,
Elevation: 643 ft
Nearby Weather Stations

Elev 643 ft 66.91 °N, 151.53 °W | Updated 1 hour ago

Partly Cloudy
Partly Cloudy
1 °F
Feels Like -9 °F
N
5
Wind Variable Wind from NW

Today
High -- | Low -- °F
--% Chance of Precip.
Yesterday
High -- | Low -- °F
Precip. -- in
Pressure 30.07 in
Visibility 10.0 miles
Clouds Few 10000 ft
Windchill -9 °F
Dew Point -5 °F
Humidity 75%
Rainfall 0.00 in
Snow Depth Not available.
9:32 AM 5:02 PM
Waxing Crescent, 7% visible
METAR PABT 102153Z 32004KT 10SM FEW100 M17/M21 A2999 RMK AO2 SLP183 T11721206
Pressure 30.07 in
Visibility 10.0 miles
Clouds Few 10000 ft
Windchill -9 °F
Dew Point -5 °F
Humidity 75%
Rainfall 0.00 in
Snow Depth Not available.
9:32 AM 5:02 PM
Waxing Crescent, 7% visible
METAR PABT 102153Z 32004KT 10SM FEW100 M17/M21 A2999 RMK AO2 SLP183 T11721206

10-Day Weather Forecast

Almanac

Astronomy

Feb. 10, 2016 Rise Set
Actual Time
Civil Twilight
Nautical Twilight
Astronomical Twilight
Moon
Length of Visible Light
Length of Day
Tomorrow will be .
, % of the Moon is Illuminated

Today's Extremes

State Highs State Lows

Community

WunderPhotos

Upload Photos

1,891,940 photos uploaded!

WunderBlog® & News

Nearby

Air Quality

  Air Quality AQ Index Pollutant
Not available.

Snow Depth

Station Depth Elevation

Earthquake Activity

City Distance Mag. Time & Date
Minimum magnitude displayed is 2.5.

Coastal Water Temperatures

Place Temperature

Stations

Nearby Weather Stations

Station Location Temp. Windchill Dew Point Humidity Wind Precip. Elev Updated Type
                   

Watches & Warnings

There are currently no watches in effect.